Time;durP1;ratioP1;P1;durP2;ratioP2;P2;SDS_P1;SDS_P2;PMS_P1;PMS_P2;Temp;Humidity;BMP_temperature;BMP_pressure;BME280_temperature;BME280_humidity;BME280_pressure;Samples;Min_cycle;Max_cycle;Signal;HPM_P1;HPM_P2
2021/12/22 00:05:09;;;;;;;4.93;4.40;;;;;;;;;;12503645;28;20048;-73
2021/12/22 00:11:11;;;;;;;7.28;6.30;;;;;;;;;;12503645;28;20044;-74
2021/12/22 00:17:13;;;;;;;9.98;8.98;;;;;;;;;;12503253;28;20045;-74
2021/12/22 00:23:14;;;;;;;10.23;8.15;;;;;;;;;;12503384;28;20061;-73
2021/12/22 00:29:17;;;;;;;10.02;8.93;;;;;;;;;;12501638;28;20033;-73
2021/12/22 00:35:21;;;;;;;12.43;11.13;;;;;;;;;;12502004;28;20034;-73
2021/12/22 00:41:22;;;;;;;12.13;10.88;;;;;;;;;;12502134;28;20037;-74
2021/12/22 00:47:26;;;;;;;9.85;8.95;;;;;;;;;;12500468;28;20116;-74
2021/12/22 00:53:28;;;;;;;12.20;11.02;;;;;;;;;;12500978;28;20045;-74
2021/12/22 00:59:30;;;;;;;11.93;10.73;;;;;;;;;;12500042;28;20048;-73
2021/12/22 01:05:32;;;;;;;12.80;11.70;;;;;;;;;;12498883;28;20537;-73
2021/12/22 01:11:34;;;;;;;14.07;12.77;;;;;;;;;;12483141;28;20040;-73
2021/12/22 01:17:41;;;;;;;11.38;10.27;;;;;;;;;;12501004;28;20037;-74
2021/12/22 01:24:01;;;;;;;9.45;8.55;;;;;;;;;;12499405;28;20061;-74
2021/12/22 01:30:05;;;;;;;7.05;6.35;;;;;;;;;;12499967;28;20037;-73
2021/12/22 01:36:07;;;;;;;9.50;8.63;;;;;;;;;;12498336;28;20029;-73
2021/12/22 01:42:09;;;;;;;8.65;7.85;;;;;;;;;;12499557;28;20498;-74
2021/12/22 01:54:45;;;;;;;8.30;7.50;;;;;;;;;;12498873;28;20168;-74
2021/12/22 02:00:47;;;;;;;8.25;7.25;;;;;;;;;;12498584;28;20418;-73
2021/12/22 02:06:49;;;;;;;6.95;6.35;;;;;;;;;;12498171;28;20037;-74
2021/12/22 02:12:53;;;;;;;8.88;8.07;;;;;;;;;;12480156;28;20048;-73
2021/12/22 02:18:56;;;;;;;10.25;9.30;;;;;;;;;;12496579;28;20398;-74
2021/12/22 02:25:03;;;;;;;9.50;8.60;;;;;;;;;;12495929;28;20128;-74
2021/12/22 02:31:05;;;;;;;8.90;8.07;;;;;;;;;;12495989;28;20026;-74
2021/12/22 02:37:12;;;;;;;9.85;8.93;;;;;;;;;;12495357;28;20056;-73
2021/12/22 02:43:20;;;;;;;10.23;9.32;;;;;;;;;;12495592;28;20048;-73
2021/12/22 02:49:21;;;;;;;10.43;9.43;;;;;;;;;;12496154;28;20052;-73
2021/12/22 02:55:29;;;;;;;9.27;8.38;;;;;;;;;;12495961;28;20042;-74
2021/12/22 03:07:50;;;;;;;11.13;10.13;;;;;;;;;;12494450;28;20404;-73
2021/12/22 03:13:51;;;;;;;9.90;8.90;;;;;;;;;;12495317;28;20045;-74
2021/12/22 03:19:54;;;;;;;7.95;7.25;;;;;;;;;;12494890;28;20045;-74
2021/12/22 03:25:57;;;;;;;9.82;8.40;;;;;;;;;;12494016;28;20061;-74
2021/12/22 03:31:59;;;;;;;8.10;7.40;;;;;;;;;;12494614;28;20486;-74
2021/12/22 03:38:01;;;;;;;7.90;7.20;;;;;;;;;;12493314;28;20040;-74
2021/12/22 03:44:03;;;;;;;9.77;8.87;;;;;;;;;;12494188;28;20398;-74
2021/12/22 03:50:06;;;;;;;9.20;8.37;;;;;;;;;;12493504;28;20466;-74
2021/12/22 03:56:07;;;;;;;6.27;5.77;;;;;;;;;;12494268;28;20048;-74
2021/12/22 04:02:09;;;;;;;8.00;7.20;;;;;;;;;;12492940;28;20029;-75
2021/12/22 04:08:12;;;;;;;7.57;6.97;;;;;;;;;;12492844;28;20072;-73
2021/12/22 04:14:14;;;;;;;8.10;7.45;;;;;;;;;;12476088;28;20044;-72
2021/12/22 04:20:16;;;;;;;8.63;7.82;;;;;;;;;;12492584;28;20068;-73
2021/12/22 04:26:18;;;;;;;9.13;8.23;;;;;;;;;;12493482;28;20042;-73
2021/12/22 04:32:19;;;;;;;7.47;6.78;;;;;;;;;;12492222;28;20057;-72
2021/12/22 04:38:21;;;;;;;8.73;7.93;;;;;;;;;;12493163;28;20044;-73
2021/12/22 04:44:23;;;;;;;7.03;6.43;;;;;;;;;;12499740;28;20057;-73
2021/12/22 04:50:25;;;;;;;6.82;6.22;;;;;;;;;;12502003;28;20041;-73
2021/12/22 04:56:26;;;;;;;9.15;8.40;;;;;;;;;;12502083;28;20561;-74
2021/12/22 05:02:28;;;;;;;6.30;5.80;;;;;;;;;;12499923;28;20034;-73
2021/12/22 05:08:30;;;;;;;9.82;8.90;;;;;;;;;;12499633;28;20041;-73
2021/12/22 05:14:32;;;;;;;5.60;5.15;;;;;;;;;;12499702;28;20037;-73
2021/12/22 05:20:33;;;;;;;8.55;7.82;;;;;;;;;;12499567;28;20045;-72
2021/12/22 05:26:35;;;;;;;9.85;8.98;;;;;;;;;;12500018;28;20050;-73
2021/12/22 05:32:37;;;;;;;7.00;6.38;;;;;;;;;;12499648;28;20029;-72
2021/12/22 05:38:39;;;;;;;8.02;7.22;;;;;;;;;;12499267;28;20394;-73
2021/12/22 05:44:42;;;;;;;8.25;7.45;;;;;;;;;;12498271;28;20045;-73
2021/12/22 05:50:46;;;;;;;;;;;;;;;;;;12499656;28;20057;-73
2021/12/22 05:56:47;;;;;;;7.57;6.97;;;;;;;;;;12497223;28;19913;-73
2021/12/22 06:02:49;;;;;;;8.00;7.20;;;;;;;;;;12497091;28;20034;-75
2021/12/22 06:08:51;;;;;;;8.32;7.63;;;;;;;;;;12497087;28;20060;-73
2021/12/22 06:14:52;;;;;;;7.47;6.78;;;;;;;;;;12497765;28;20422;-73
2021/12/22 06:20:54;;;;;;;7.20;6.60;;;;;;;;;;12497900;28;20045;-74
2021/12/22 06:26:57;;;;;;;7.47;6.78;;;;;;;;;;12481948;28;20077;-73
2021/12/22 06:32:58;;;;;;;;;;;;;;;;;;12455801;28;20034;-73
2021/12/22 06:39:00;;;;;;;8.98;8.07;;;;;;;;;;12494332;28;19916;-73
2021/12/22 06:45:02;;;;;;;7.82;7.13;;;;;;;;;;12495991;28;20497;-73
2021/12/22 06:51:03;;;;;;;15.63;14.00;;;;;;;;;;12484870;28;20033;-73
2021/12/22 06:57:05;;;;;;;13.40;12.13;;;;;;;;;;12483037;28;20482;-74
2021/12/22 07:03:07;;;;;;;12.25;11.13;;;;;;;;;;12481319;28;20041;-75
2021/12/22 07:09:09;;;;;;;9.00;8.10;;;;;;;;;;12481604;28;20372;-75
2021/12/22 07:15:13;;;;;;;12.53;11.33;;;;;;;;;;12478921;28;20045;-74
2021/12/22 07:21:14;;;;;;;10.90;9.93;;;;;;;;;;12473384;28;20487;-74
2021/12/22 07:27:17;;;;;;;;;;;;;;;;;;12469768;28;20065;-73
2021/12/22 07:33:19;;;;;;;12.57;11.48;;;;;;;;;;12474963;28;19909;-73
2021/12/22 07:39:20;;;;;;;9.73;8.80;;;;;;;;;;12474295;28;20033;-73
2021/12/22 07:45:22;;;;;;;10.95;9.95;;;;;;;;;;12475215;28;20567;-74
2021/12/22 07:51:24;;;;;;;10.70;9.68;;;;;;;;;;12466360;28;20036;-73
2021/12/22 07:57:26;;;;;;;10.68;9.68;;;;;;;;;;12468099;28;20501;-74
2021/12/22 08:03:27;;;;;;;12.70;11.53;;;;;;;;;;12489618;28;20021;-74
2021/12/22 08:09:29;;;;;;;12.95;11.63;;;;;;;;;;12467750;28;20483;-74
2021/12/22 08:15:31;;;;;;;12.63;11.52;;;;;;;;;;12479488;28;20033;-74
2021/12/22 08:21:33;;;;;;;13.85;12.55;;;;;;;;;;12487099;28;20052;-74
2021/12/22 08:27:34;;;;;;;10.45;9.55;;;;;;;;;;12491509;28;20042;-74
2021/12/22 08:33:43;;;;;;;7.78;7.05;;;;;;;;;;12487931;28;20029;-74
2021/12/22 08:39:45;;;;;;;13.25;11.95;;;;;;;;;;12482662;28;20025;-75
2021/12/22 08:45:47;;;;;;;13.45;12.07;;;;;;;;;;12490750;28;20049;-74
2021/12/22 08:51:50;;;;;;;13.60;12.30;;;;;;;;;;12474618;28;20033;-74
2021/12/22 08:57:51;;;;;;;12.65;11.35;;;;;;;;;;12473184;28;20033;-74
2021/12/22 09:03:53;;;;;;;10.90;9.80;;;;;;;;;;12486582;28;20056;-74
2021/12/22 09:09:55;;;;;;;11.48;10.38;;;;;;;;;;12485816;28;20022;-74
2021/12/22 09:15:57;;;;;;;10.95;9.85;;;;;;;;;;12478090;28;20025;-74
2021/12/22 09:21:59;;;;;;;10.68;9.60;;;;;;;;;;12482854;28;20042;-73
2021/12/22 09:28:01;;;;;;;10.77;9.65;;;;;;;;;;12473593;28;20426;-75
2021/12/22 09:34:03;;;;;;;11.27;9.40;;;;;;;;;;12478346;28;20029;-77
2021/12/22 09:40:05;;;;;;;9.83;8.93;;;;;;;;;;12483929;28;20509;-78
2021/12/22 09:46:11;;;;;;;9.63;8.73;;;;;;;;;;12479271;28;20034;-74
2021/12/22 09:52:19;;;;;;;10.63;9.55;;;;;;;;;;12481484;28;20044;-78
2021/12/22 09:58:21;;;;;;;9.65;8.48;;;;;;;;;;12476091;28;20052;-79
2021/12/22 10:04:23;;;;;;;12.10;9.87;;;;;;;;;;12479010;28;20041;-76
2021/12/22 10:10:29;;;;;;;9.60;8.70;;;;;;;;;;12482425;28;20038;-78
2021/12/22 10:16:31;;;;;;;8.55;7.75;;;;;;;;;;12476989;28;20034;-78
2021/12/22 10:22:37;;;;;;;9.38;8.27;;;;;;;;;;12479925;28;20052;-79
2021/12/22 10:28:47;;;;;;;10.52;8.95;;;;;;;;;;12480219;28;20045;-79
2021/12/22 10:35:00;;;;;;;8.90;8.10;;;;;;;;;;12482802;28;20052;-79
2021/12/22 10:41:11;;;;;;;9.25;8.38;;;;;;;;;;12482802;28;20056;-78
2021/12/22 10:47:35;;;;;;;11.70;10.50;;;;;;;;;;12478470;28;20038;-77
2021/12/22 10:53:42;;;;;;;11.52;10.43;;;;;;;;;;12486895;28;20041;-78
2021/12/22 10:59:45;;;;;;;11.48;10.48;;;;;;;;;;12481165;28;20509;-78
2021/12/22 11:05:48;;;;;;;12.32;11.02;;;;;;;;;;12482921;28;20037;-77
2021/12/22 11:11:51;;;;;;;12.13;10.65;;;;;;;;;;12479354;28;20029;-78
2021/12/22 11:17:53;;;;;;;10.95;9.82;;;;;;;;;;12482870;28;20493;-79
2021/12/22 11:23:55;;;;;;;10.07;9.15;;;;;;;;;;12481178;28;20060;-79
2021/12/22 11:29:58;;;;;;;9.02;8.02;;;;;;;;;;12481666;28;20041;-79
2021/12/22 11:36:01;;;;;;;9.68;8.77;;;;;;;;;;12479821;28;20033;-73
2021/12/22 11:42:04;;;;;;;9.23;8.33;;;;;;;;;;12474834;28;20033;-75
2021/12/22 11:48:06;;;;;;;9.00;8.15;;;;;;;;;;12475025;28;20042;-78
2021/12/22 11:54:09;;;;;;;7.55;6.85;;;;;;;;;;12471024;28;20482;-76
2021/12/22 12:00:10;;;;;;;;;;;;;;;;;;12491814;28;20034;-75
2021/12/22 12:06:14;;;;;;;9.07;8.02;;;;;;;;;;12489463;28;19932;-82
2021/12/22 12:12:34;;;;;;;10.30;9.20;;;;;;;;;;12471438;28;20443;-78
2021/12/22 12:25:16;;;;;;;8.35;6.55;;;;;;;;;;12496324;28;20061;-74
2021/12/22 12:31:37;;;;;;;7.27;6.57;;;;;;;;;;12500782;28;20509;-75
2021/12/22 12:37:58;;;;;;;8.40;7.60;;;;;;;;;;12502142;28;20040;-74
2021/12/22 12:44:07;;;;;;;6.13;5.57;;;;;;;;;;12502575;28;20033;-74
2021/12/22 12:50:25;;;;;;;6.95;6.07;;;;;;;;;;12501946;28;20041;-74
2021/12/22 12:56:31;;;;;;;8.52;7.63;;;;;;;;;;12501612;28;20391;-74
2021/12/22 13:02:34;;;;;;;7.95;7.10;;;;;;;;;;12482513;28;20064;-73
2021/12/22 13:08:36;;;;;;;6.72;6.13;;;;;;;;;;12499248;28;20072;-74
2021/12/22 13:21:06;;;;;;;5.68;5.18;;;;;;;;;;12492267;28;20053;-74
2021/12/22 13:27:08;;;;;;;7.10;6.45;;;;;;;;;;12481789;28;20056;-75
2021/12/22 13:33:17;;;;;;;6.43;5.75;;;;;;;;;;12473782;28;20494;-75
2021/12/22 13:39:19;;;;;;;5.43;4.93;;;;;;;;;;12481585;28;20073;-73
2021/12/22 13:45:23;;;;;;;5.63;5.13;;;;;;;;;;12477138;28;20037;-75
2021/12/22 13:51:27;;;;;;;6.28;5.32;;;;;;;;;;12450156;28;20034;-75
2021/12/22 13:57:28;;;;;;;9.43;7.82;;;;;;;;;;12448034;28;20037;-75
2021/12/22 14:03:31;;;;;;;6.78;6.18;;;;;;;;;;12448312;28;20037;-75
2021/12/22 14:09:36;;;;;;;;;;;;;;;;;;12447925;28;20061;-75
2021/12/22 14:15:38;;;;;;;9.63;7.68;;;;;;;;;;12448339;28;19910;-75
2021/12/22 14:21:40;;;;;;;6.43;5.77;;;;;;;;;;12448761;28;20392;-74
2021/12/22 14:27:41;;;;;;;8.73;6.93;;;;;;;;;;12448281;28;20065;-74
2021/12/22 14:34:02;;;;;;;6.43;5.82;;;;;;;;;;12446829;28;20368;-74
2021/12/22 14:40:20;;;;;;;8.32;7.40;;;;;;;;;;12447542;28;20045;-74
2021/12/22 14:46:35;;;;;;;9.38;8.45;;;;;;;;;;12446046;28;20056;-74
2021/12/22 14:52:37;;;;;;;7.03;6.32;;;;;;;;;;12447620;28;20467;-74
2021/12/22 14:58:39;;;;;;;6.15;5.55;;;;;;;;;;12446610;28;20041;-74
2021/12/22 15:04:41;;;;;;;6.97;6.27;;;;;;;;;;12445405;28;20057;-73
2021/12/22 15:10:43;;;;;;;6.90;6.25;;;;;;;;;;12429305;28;20037;-73
2021/12/22 15:16:44;;;;;;;6.80;5.70;;;;;;;;;;12445041;28;20044;-73
2021/12/22 15:22:46;;;;;;;6.47;5.88;;;;;;;;;;12446270;28;20514;-74
2021/12/22 15:28:48;;;;;;;7.38;6.68;;;;;;;;;;12444207;28;20049;-74
2021/12/22 15:34:50;;;;;;;7.23;6.47;;;;;;;;;;12445853;28;20037;-74
2021/12/22 15:40:53;;;;;;;7.32;5.90;;;;;;;;;;12444615;28;20057;-74
2021/12/22 15:46:54;;;;;;;6.65;6.05;;;;;;;;;;12445132;28;20045;-74
2021/12/22 15:52:56;;;;;;;7.50;6.68;;;;;;;;;;12444624;28;20052;-74
2021/12/22 15:58:58;;;;;;;7.00;6.35;;;;;;;;;;12444693;28;20148;-75
2021/12/22 16:05:00;;;;;;;6.85;6.15;;;;;;;;;;12444471;28;20041;-75
2021/12/22 16:11:01;;;;;;;6.95;6.35;;;;;;;;;;12444942;28;20368;-75
2021/12/22 16:17:03;;;;;;;8.60;7.45;;;;;;;;;;12443739;28;20041;-73
2021/12/22 16:23:05;;;;;;;8.68;7.57;;;;;;;;;;12445105;28;20054;-74
2021/12/22 16:29:07;;;;;;;7.85;6.70;;;;;;;;;;12443042;28;20053;-74
2021/12/22 16:35:09;;;;;;;7.77;6.60;;;;;;;;;;12443442;28;20034;-75
2021/12/22 16:41:11;;;;;;;6.75;6.15;;;;;;;;;;12452050;28;20041;-75
2021/12/22 16:47:12;;;;;;;7.05;5.97;;;;;;;;;;12451487;28;20553;-75
2021/12/22 16:53:14;;;;;;;8.50;7.70;;;;;;;;;;12453512;28;20034;-73
2021/12/22 16:59:17;;;;;;;9.45;7.88;;;;;;;;;;12451809;28;20041;-74
2021/12/22 17:05:18;;;;;;;10.10;9.15;;;;;;;;;;12450516;28;20042;-74
2021/12/22 17:11:21;;;;;;;9.30;8.40;;;;;;;;;;12451380;28;20069;-74
2021/12/22 17:17:24;;;;;;;11.13;10.07;;;;;;;;;;12451283;28;20037;-74
2021/12/22 17:23:26;;;;;;;12.30;11.00;;;;;;;;;;12451639;28;20058;-75
2021/12/22 17:29:28;;;;;;;11.02;9.85;;;;;;;;;;12449901;28;20052;-74
2021/12/22 17:35:30;;;;;;;12.88;11.57;;;;;;;;;;12450876;28;20057;-74
2021/12/22 17:41:33;;;;;;;11.77;10.68;;;;;;;;;;12450285;28;20048;-76
2021/12/22 17:47:35;;;;;;;11.07;9.98;;;;;;;;;;12449832;28;20510;-74
2021/12/22 17:53:37;;;;;;;11.77;10.57;;;;;;;;;;12448925;28;20036;-74
2021/12/22 17:59:38;;;;;;;11.65;10.55;;;;;;;;;;12449407;28;20037;-74
2021/12/22 18:05:42;;;;;;;12.07;10.77;;;;;;;;;;12448316;28;20041;-74
2021/12/22 18:11:44;;;;;;;13.05;11.75;;;;;;;;;;12448952;28;20046;-74
2021/12/22 18:17:46;;;;;;;13.32;12.10;;;;;;;;;;12448500;28;20041;-75
2021/12/22 18:23:51;;;;;;;14.60;13.10;;;;;;;;;;12447257;28;20050;-73
2021/12/22 18:29:53;;;;;;;14.27;12.88;;;;;;;;;;12447815;28;20050;-73
2021/12/22 18:35:59;;;;;;;16.07;14.37;;;;;;;;;;12447347;28;20040;-77
2021/12/22 18:42:01;;;;;;;19.00;17.20;;;;;;;;;;12447371;28;20034;-76
2021/12/22 18:48:05;;;;;;;17.70;15.40;;;;;;;;;;12447665;28;20053;-74
2021/12/22 18:54:06;;;;;;;16.73;15.02;;;;;;;;;;12446842;28;20468;-74
2021/12/22 19:00:09;;;;;;;16.73;14.93;;;;;;;;;;12446379;28;20038;-75
2021/12/22 19:06:12;;;;;;;20.57;18.43;;;;;;;;;;12446914;28;20395;-73
2021/12/22 19:12:14;;;;;;;18.40;16.63;;;;;;;;;;12444962;28;20034;-74
2021/12/22 19:18:16;;;;;;;22.88;20.50;;;;;;;;;;12445752;28;20032;-75
2021/12/22 19:24:18;;;;;;;24.20;21.63;;;;;;;;;;12445409;28;20041;-74
2021/12/22 19:30:21;;;;;;;19.55;17.45;;;;;;;;;;12445006;28;20037;-74
2021/12/22 19:36:25;;;;;;;24.70;21.73;;;;;;;;;;12445562;28;20037;-75
2021/12/22 19:42:27;;;;;;;28.42;24.52;;;;;;;;;;12444049;28;20511;-74
2021/12/22 19:48:29;;;;;;;29.13;25.93;;;;;;;;;;12428158;28;20053;-73
2021/12/22 19:54:31;;;;;;;22.80;20.47;;;;;;;;;;12444779;28;20046;-75
2021/12/22 20:00:34;;;;;;;21.95;19.75;;;;;;;;;;12444120;28;20324;-75
2021/12/22 20:06:36;;;;;;;26.42;23.58;;;;;;;;;;12444792;28;20392;-78
2021/12/22 20:12:37;;;;;;;23.52;21.02;;;;;;;;;;12449520;28;20030;-75
2021/12/22 20:18:39;;;;;;;27.50;24.75;;;;;;;;;;12454539;28;20052;-74
2021/12/22 20:24:42;;;;;;;30.70;27.58;;;;;;;;;;12452790;28;20061;-75
2021/12/22 20:30:44;;;;;;;30.35;27.38;;;;;;;;;;12453815;28;20061;-74
2021/12/22 20:36:46;;;;;;;31.23;28.03;;;;;;;;;;12453548;28;20038;-74
2021/12/22 20:42:48;;;;;;;33.17;29.80;;;;;;;;;;12453318;28;20044;-74
2021/12/22 20:48:50;;;;;;;41.05;36.58;;;;;;;;;;12453014;28;20050;-75
2021/12/22 20:54:52;;;;;;;32.03;28.70;;;;;;;;;;12452127;28;20034;-73
2021/12/22 21:00:53;;;;;;;30.73;27.48;;;;;;;;;;12452562;28;20391;-75
2021/12/22 21:06:55;;;;;;;29.65;26.73;;;;;;;;;;12452219;28;20046;-74
2021/12/22 21:13:00;;;;;;;29.08;26.05;;;;;;;;;;12450838;28;20045;-74
2021/12/22 21:19:02;;;;;;;27.85;24.95;;;;;;;;;;12451492;28;20032;-74
2021/12/22 21:25:04;;;;;;;21.88;19.70;;;;;;;;;;12450947;28;20057;-74
2021/12/22 21:31:09;;;;;;;22.65;20.50;;;;;;;;;;12450331;28;20030;-74
2021/12/22 21:37:10;;;;;;;23.70;21.40;;;;;;;;;;12449693;28;21891;-74
2021/12/22 21:43:12;;;;;;;23.38;21.00;;;;;;;;;;12450182;28;20044;-75
2021/12/22 21:49:14;;;;;;;20.50;18.42;;;;;;;;;;12450165;28;20491;-75
2021/12/22 21:55:16;;;;;;;22.10;19.85;;;;;;;;;;12448717;28;20045;-74
2021/12/22 22:01:18;;;;;;;20.27;18.17;;;;;;;;;;12448832;28;20037;-74
2021/12/22 22:07:20;;;;;;;17.95;16.02;;;;;;;;;;12449523;28;20038;-74
2021/12/22 22:13:22;;;;;;;15.93;14.27;;;;;;;;;;12448892;28;20038;-74
2021/12/22 22:19:23;;;;;;;17.50;15.85;;;;;;;;;;12449115;28;20038;-75
2021/12/22 22:25:25;;;;;;;18.55;16.73;;;;;;;;;;12450518;28;20057;-75
2021/12/22 22:31:27;;;;;;;18.73;15.17;;;;;;;;;;12430750;28;20029;-74
2021/12/22 22:37:29;;;;;;;14.60;13.18;;;;;;;;;;12446691;28;20034;-74
2021/12/22 22:43:30;;;;;;;17.27;15.60;;;;;;;;;;12448191;28;20033;-75
2021/12/22 22:49:32;;;;;;;16.25;14.68;;;;;;;;;;12446519;28;20038;-75
2021/12/22 22:55:34;;;;;;;13.30;11.98;;;;;;;;;;12446062;28;20038;-74
2021/12/22 23:01:36;;;;;;;16.02;14.38;;;;;;;;;;12447461;28;20041;-74
2021/12/22 23:07:37;;;;;;;18.25;16.40;;;;;;;;;;12447501;28;20049;-74
2021/12/22 23:13:43;;;;;;;11.77;10.57;;;;;;;;;;12445552;28;20030;-74
2021/12/22 23:19:45;;;;;;;14.60;11.93;;;;;;;;;;12446882;28;20041;-74
2021/12/22 23:25:48;;;;;;;10.93;9.75;;;;;;;;;;12445179;28;20510;-74
2021/12/22 23:31:50;;;;;;;15.23;13.82;;;;;;;;;;12445090;28;20029;-75
2021/12/22 23:38:10;;;;;;;13.75;12.45;;;;;;;;;;12445808;28;20026;-74
2021/12/22 23:50:32;;;;;;;14.55;13.15;;;;;;;;;;12445936;28;20049;-74
2021/12/22 23:56:34;;;;;;;12.52;10.95;;;;;;;;;;12445293;28;20041;-74
